sensor_id;sensor_type;location;lat;lon;timestamp;P1;durP1;ratioP1;P2;durP2;ratioP2
18142;SDS011;9197;50.930;3.140;2023-04-09T00:02:25;82.53;;;49.93;;
18142;SDS011;9197;50.930;3.140;2023-04-09T00:04:53;92.60;;;51.73;;
18142;SDS011;9197;50.930;3.140;2023-04-09T00:07:20;91.67;;;51.47;;
18142;SDS011;9197;50.930;3.140;2023-04-09T00:09:47;92.20;;;52.67;;
18142;SDS011;9197;50.930;3.140;2023-04-09T00:12:14;85.10;;;50.50;;
18142;SDS011;9197;50.930;3.140;2023-04-09T00:14:41;85.60;;;50.40;;
18142;SDS011;9197;50.930;3.140;2023-04-09T00:17:10;92.47;;;52.00;;
18142;SDS011;9197;50.930;3.140;2023-04-09T00:19:37;96.20;;;51.73;;
18142;SDS011;9197;50.930;3.140;2023-04-09T00:22:05;91.03;;;51.53;;
18142;SDS011;9197;50.930;3.140;2023-04-09T00:24:32;88.33;;;52.67;;
18142;SDS011;9197;50.930;3.140;2023-04-09T00:26:59;87.90;;;52.07;;
18142;SDS011;9197;50.930;3.140;2023-04-09T00:29:26;88.23;;;49.73;;
18142;SDS011;9197;50.930;3.140;2023-04-09T00:31:54;88.23;;;51.13;;
18142;SDS011;9197;50.930;3.140;2023-04-09T00:34:22;92.13;;;51.27;;
18142;SDS011;9197;50.930;3.140;2023-04-09T00:36:49;91.97;;;54.40;;
18142;SDS011;9197;50.930;3.140;2023-04-09T00:39:16;94.57;;;52.63;;
18142;SDS011;9197;50.930;3.140;2023-04-09T00:41:44;90.80;;;52.40;;
18142;SDS011;9197;50.930;3.140;2023-04-09T00:44:11;90.57;;;52.33;;
18142;SDS011;9197;50.930;3.140;2023-04-09T00:46:38;93.50;;;51.73;;
18142;SDS011;9197;50.930;3.140;2023-04-09T00:49:05;87.40;;;51.13;;
18142;SDS011;9197;50.930;3.140;2023-04-09T00:51:34;79.93;;;46.83;;
18142;SDS011;9197;50.930;3.140;2023-04-09T00:54:02;83.03;;;49.97;;
18142;SDS011;9197;50.930;3.140;2023-04-09T00:56:30;82.97;;;48.57;;
18142;SDS011;9197;50.930;3.140;2023-04-09T00:58:57;86.40;;;48.23;;
18142;SDS011;9197;50.930;3.140;2023-04-09T01:01:25;81.87;;;47.73;;
18142;SDS011;9197;50.930;3.140;2023-04-09T01:03:52;80.27;;;48.63;;
18142;SDS011;9197;50.930;3.140;2023-04-09T01:06:21;80.87;;;47.67;;
18142;SDS011;9197;50.930;3.140;2023-04-09T01:08:55;81.17;;;47.03;;
18142;SDS011;9197;50.930;3.140;2023-04-09T01:11:27;74.53;;;45.67;;
18142;SDS011;9197;50.930;3.140;2023-04-09T01:14:00;81.93;;;48.27;;
18142;SDS011;9197;50.930;3.140;2023-04-09T01:16:29;81.90;;;50.23;;
18142;SDS011;9197;50.930;3.140;2023-04-09T01:18:57;77.47;;;46.80;;
18142;SDS011;9197;50.930;3.140;2023-04-09T01:21:28;90.83;;;50.53;;
18142;SDS011;9197;50.930;3.140;2023-04-09T01:23:58;78.50;;;48.23;;
18142;SDS011;9197;50.930;3.140;2023-04-09T01:26:33;79.90;;;45.97;;
18142;SDS011;9197;50.930;3.140;2023-04-09T01:29:05;79.90;;;45.07;;
18142;SDS011;9197;50.930;3.140;2023-04-09T01:31:33;74.03;;;43.00;;
18142;SDS011;9197;50.930;3.140;2023-04-09T01:34:01;72.63;;;45.87;;
18142;SDS011;9197;50.930;3.140;2023-04-09T01:36:29;73.30;;;45.23;;
18142;SDS011;9197;50.930;3.140;2023-04-09T01:38:57;79.10;;;43.97;;
18142;SDS011;9197;50.930;3.140;2023-04-09T01:41:26;68.63;;;41.17;;
18142;SDS011;9197;50.930;3.140;2023-04-09T01:43:54;72.00;;;41.00;;
18142;SDS011;9197;50.930;3.140;2023-04-09T01:46:27;82.03;;;45.17;;
18142;SDS011;9197;50.930;3.140;2023-04-09T01:48:55;79.53;;;45.77;;
18142;SDS011;9197;50.930;3.140;2023-04-09T01:51:22;70.00;;;44.97;;
18142;SDS011;9197;50.930;3.140;2023-04-09T01:53:51;78.57;;;48.27;;
18142;SDS011;9197;50.930;3.140;2023-04-09T01:56:18;76.73;;;47.13;;
18142;SDS011;9197;50.930;3.140;2023-04-09T01:58:46;77.87;;;44.83;;
18142;SDS011;9197;50.930;3.140;2023-04-09T02:01:15;72.17;;;44.43;;
18142;SDS011;9197;50.930;3.140;2023-04-09T02:03:49;76.10;;;44.83;;
18142;SDS011;9197;50.930;3.140;2023-04-09T02:06:23;73.50;;;45.50;;
18142;SDS011;9197;50.930;3.140;2023-04-09T02:08:51;67.90;;;41.67;;
18142;SDS011;9197;50.930;3.140;2023-04-09T02:11:19;70.40;;;42.57;;
18142;SDS011;9197;50.930;3.140;2023-04-09T02:13:47;66.83;;;43.50;;
18142;SDS011;9197;50.930;3.140;2023-04-09T02:16:15;63.03;;;41.83;;
18142;SDS011;9197;50.930;3.140;2023-04-09T02:18:43;71.60;;;43.43;;
18142;SDS011;9197;50.930;3.140;2023-04-09T02:21:11;70.87;;;41.67;;
18142;SDS011;9197;50.930;3.140;2023-04-09T02:23:39;74.47;;;42.30;;
18142;SDS011;9197;50.930;3.140;2023-04-09T02:26:06;70.60;;;40.07;;
18142;SDS011;9197;50.930;3.140;2023-04-09T02:28:33;64.37;;;38.37;;
18142;SDS011;9197;50.930;3.140;2023-04-09T02:31:00;57.20;;;37.67;;
18142;SDS011;9197;50.930;3.140;2023-04-09T02:33:27;45.77;;;32.53;;
18142;SDS011;9197;50.930;3.140;2023-04-09T02:35:55;49.93;;;31.90;;
18142;SDS011;9197;50.930;3.140;2023-04-09T02:38:23;48.33;;;31.47;;
18142;SDS011;9197;50.930;3.140;2023-04-09T02:40:50;46.43;;;31.03;;
18142;SDS011;9197;50.930;3.140;2023-04-09T02:43:18;40.47;;;29.73;;
18142;SDS011;9197;50.930;3.140;2023-04-09T02:45:45;37.70;;;27.30;;
18142;SDS011;9197;50.930;3.140;2023-04-09T02:48:12;34.90;;;26.93;;
18142;SDS011;9197;50.930;3.140;2023-04-09T02:50:39;37.80;;;28.97;;
18142;SDS011;9197;50.930;3.140;2023-04-09T02:53:06;35.17;;;26.80;;
18142;SDS011;9197;50.930;3.140;2023-04-09T02:55:35;39.00;;;26.90;;
18142;SDS011;9197;50.930;3.140;2023-04-09T02:58:02;36.03;;;27.07;;
18142;SDS011;9197;50.930;3.140;2023-04-09T03:00:29;41.03;;;29.87;;
18142;SDS011;9197;50.930;3.140;2023-04-09T03:02:56;35.53;;;26.27;;
18142;SDS011;9197;50.930;3.140;2023-04-09T03:05:24;41.13;;;28.33;;
18142;SDS011;9197;50.930;3.140;2023-04-09T03:07:52;42.60;;;27.27;;
18142;SDS011;9197;50.930;3.140;2023-04-09T03:10:20;41.60;;;28.07;;
18142;SDS011;9197;50.930;3.140;2023-04-09T03:12:48;36.53;;;26.77;;
18142;SDS011;9197;50.930;3.140;2023-04-09T03:15:15;42.57;;;30.43;;
18142;SDS011;9197;50.930;3.140;2023-04-09T03:17:43;34.37;;;26.63;;
18142;SDS011;9197;50.930;3.140;2023-04-09T03:20:10;43.23;;;30.03;;
18142;SDS011;9197;50.930;3.140;2023-04-09T03:22:37;38.27;;;29.03;;
18142;SDS011;9197;50.930;3.140;2023-04-09T03:25:05;40.37;;;30.13;;
18142;SDS011;9197;50.930;3.140;2023-04-09T03:27:32;40.07;;;28.83;;
18142;SDS011;9197;50.930;3.140;2023-04-09T03:30:01;39.67;;;28.40;;
18142;SDS011;9197;50.930;3.140;2023-04-09T03:32:28;41.67;;;26.63;;
18142;SDS011;9197;50.930;3.140;2023-04-09T03:34:55;40.00;;;27.17;;
18142;SDS011;9197;50.930;3.140;2023-04-09T03:37:22;36.63;;;25.40;;
18142;SDS011;9197;50.930;3.140;2023-04-09T03:39:49;35.70;;;25.00;;
18142;SDS011;9197;50.930;3.140;2023-04-09T03:42:17;33.00;;;24.30;;
18142;SDS011;9197;50.930;3.140;2023-04-09T03:44:44;49.63;;;29.20;;
18142;SDS011;9197;50.930;3.140;2023-04-09T03:47:12;139.70;;;35.97;;
18142;SDS011;9197;50.930;3.140;2023-04-09T03:49:40;141.73;;;36.73;;
18142;SDS011;9197;50.930;3.140;2023-04-09T03:52:07;73.50;;;33.50;;
18142;SDS011;9197;50.930;3.140;2023-04-09T03:54:34;75.73;;;32.00;;
18142;SDS011;9197;50.930;3.140;2023-04-09T03:57:01;112.13;;;35.93;;
18142;SDS011;9197;50.930;3.140;2023-04-09T03:59:28;146.07;;;38.13;;
18142;SDS011;9197;50.930;3.140;2023-04-09T04:01:56;120.50;;;38.07;;
18142;SDS011;9197;50.930;3.140;2023-04-09T04:04:24;204.97;;;43.57;;
18142;SDS011;9197;50.930;3.140;2023-04-09T04:06:51;209.83;;;44.97;;
18142;SDS011;9197;50.930;3.140;2023-04-09T04:09:19;67.57;;;36.33;;
18142;SDS011;9197;50.930;3.140;2023-04-09T04:11:46;110.80;;;40.97;;
18142;SDS011;9197;50.930;3.140;2023-04-09T04:14:14;147.87;;;40.33;;
18142;SDS011;9197;50.930;3.140;2023-04-09T04:16:41;107.70;;;37.67;;
18142;SDS011;9197;50.930;3.140;2023-04-09T04:19:08;182.17;;;43.20;;
18142;SDS011;9197;50.930;3.140;2023-04-09T04:21:37;171.77;;;43.73;;
18142;SDS011;9197;50.930;3.140;2023-04-09T04:24:04;119.83;;;39.00;;
18142;SDS011;9197;50.930;3.140;2023-04-09T04:26:31;111.53;;;40.67;;
18142;SDS011;9197;50.930;3.140;2023-04-09T04:28:58;119.37;;;43.33;;
18142;SDS011;9197;50.930;3.140;2023-04-09T04:31:26;120.80;;;41.43;;
18142;SDS011;9197;50.930;3.140;2023-04-09T04:33:53;91.93;;;38.70;;
18142;SDS011;9197;50.930;3.140;2023-04-09T04:36:20;96.97;;;39.40;;
18142;SDS011;9197;50.930;3.140;2023-04-09T04:38:49;178.17;;;43.80;;
18142;SDS011;9197;50.930;3.140;2023-04-09T04:41:16;118.20;;;42.37;;
18142;SDS011;9197;50.930;3.140;2023-04-09T04:43:43;112.37;;;42.40;;
18142;SDS011;9197;50.930;3.140;2023-04-09T04:46:12;89.97;;;38.63;;
18142;SDS011;9197;50.930;3.140;2023-04-09T04:48:39;70.87;;;39.07;;
18142;SDS011;9197;50.930;3.140;2023-04-09T04:51:06;83.00;;;39.30;;
18142;SDS011;9197;50.930;3.140;2023-04-09T04:53:34;121.87;;;41.13;;
18142;SDS011;9197;50.930;3.140;2023-04-09T04:56:02;71.63;;;38.40;;
18142;SDS011;9197;50.930;3.140;2023-04-09T04:58:30;76.13;;;39.50;;
18142;SDS011;9197;50.930;3.140;2023-04-09T05:00:57;115.23;;;40.40;;
18142;SDS011;9197;50.930;3.140;2023-04-09T05:03:25;75.40;;;39.50;;
18142;SDS011;9197;50.930;3.140;2023-04-09T05:05:52;63.97;;;36.93;;
18142;SDS011;9197;50.930;3.140;2023-04-09T05:08:19;55.87;;;34.17;;
18142;SDS011;9197;50.930;3.140;2023-04-09T05:10:46;104.67;;;38.13;;
18142;SDS011;9197;50.930;3.140;2023-04-09T05:13:15;95.83;;;39.20;;
18142;SDS011;9197;50.930;3.140;2023-04-09T05:15:42;71.50;;;37.00;;
18142;SDS011;9197;50.930;3.140;2023-04-09T05:18:09;126.70;;;41.27;;
18142;SDS011;9197;50.930;3.140;2023-04-09T05:20:37;102.50;;;39.17;;
18142;SDS011;9197;50.930;3.140;2023-04-09T05:23:04;56.00;;;35.50;;
18142;SDS011;9197;50.930;3.140;2023-04-09T05:25:34;109.57;;;40.90;;
18142;SDS011;9197;50.930;3.140;2023-04-09T05:28:01;130.37;;;41.80;;
18142;SDS011;9197;50.930;3.140;2023-04-09T05:30:30;113.83;;;38.80;;
18142;SDS011;9197;50.930;3.140;2023-04-09T05:32:57;81.13;;;38.77;;
18142;SDS011;9197;50.930;3.140;2023-04-09T05:35:24;67.03;;;36.47;;
18142;SDS011;9197;50.930;3.140;2023-04-09T05:37:51;58.30;;;37.10;;
18142;SDS011;9197;50.930;3.140;2023-04-09T05:40:18;48.00;;;34.80;;
18142;SDS011;9197;50.930;3.140;2023-04-09T05:42:45;53.17;;;37.00;;
18142;SDS011;9197;50.930;3.140;2023-04-09T05:45:13;47.53;;;36.10;;
18142;SDS011;9197;50.930;3.140;2023-04-09T05:47:41;44.07;;;35.97;;
18142;SDS011;9197;50.930;3.140;2023-04-09T05:50:09;50.90;;;38.63;;
18142;SDS011;9197;50.930;3.140;2023-04-09T05:52:36;54.23;;;38.73;;
18142;SDS011;9197;50.930;3.140;2023-04-09T05:55:04;50.33;;;39.00;;
18142;SDS011;9197;50.930;3.140;2023-04-09T05:57:33;60.67;;;39.67;;
18142;SDS011;9197;50.930;3.140;2023-04-09T06:00:01;66.17;;;38.93;;
18142;SDS011;9197;50.930;3.140;2023-04-09T06:02:28;88.50;;;39.73;;
18142;SDS011;9197;50.930;3.140;2023-04-09T06:04:57;58.43;;;37.60;;
18142;SDS011;9197;50.930;3.140;2023-04-09T06:07:24;65.03;;;36.63;;
18142;SDS011;9197;50.930;3.140;2023-04-09T06:09:51;48.43;;;35.47;;
18142;SDS011;9197;50.930;3.140;2023-04-09T06:12:18;56.20;;;36.40;;
18142;SDS011;9197;50.930;3.140;2023-04-09T06:14:46;61.07;;;36.37;;
18142;SDS011;9197;50.930;3.140;2023-04-09T06:17:13;70.03;;;38.93;;
18142;SDS011;9197;50.930;3.140;2023-04-09T06:19:40;70.07;;;37.73;;
18142;SDS011;9197;50.930;3.140;2023-04-09T06:22:09;40.70;;;34.73;;
18142;SDS011;9197;50.930;3.140;2023-04-09T06:24:36;48.27;;;33.13;;
18142;SDS011;9197;50.930;3.140;2023-04-09T06:27:04;39.03;;;34.67;;
18142;SDS011;9197;50.930;3.140;2023-04-09T06:29:31;39.70;;;31.17;;
18142;SDS011;9197;50.930;3.140;2023-04-09T06:31:59;34.60;;;29.93;;
18142;SDS011;9197;50.930;3.140;2023-04-09T06:34:26;37.53;;;32.60;;
18142;SDS011;9197;50.930;3.140;2023-04-09T06:36:53;34.40;;;30.37;;
18142;SDS011;9197;50.930;3.140;2023-04-09T06:39:22;29.90;;;26.57;;
18142;SDS011;9197;50.930;3.140;2023-04-09T06:41:49;28.50;;;25.63;;
18142;SDS011;9197;50.930;3.140;2023-04-09T06:44:16;27.30;;;24.40;;
18142;SDS011;9197;50.930;3.140;2023-04-09T06:46:44;28.07;;;25.17;;
18142;SDS011;9197;50.930;3.140;2023-04-09T06:49:11;26.27;;;23.47;;
18142;SDS011;9197;50.930;3.140;2023-04-09T06:51:38;24.37;;;21.87;;
18142;SDS011;9197;50.930;3.140;2023-04-09T06:54:06;25.67;;;22.93;;
18142;SDS011;9197;50.930;3.140;2023-04-09T06:56:34;25.10;;;22.67;;
18142;SDS011;9197;50.930;3.140;2023-04-09T06:59:01;25.30;;;22.90;;
18142;SDS011;9197;50.930;3.140;2023-04-09T07:01:28;25.33;;;22.80;;
18142;SDS011;9197;50.930;3.140;2023-04-09T07:03:56;25.73;;;23.33;;
18142;SDS011;9197;50.930;3.140;2023-04-09T07:06:23;23.90;;;21.70;;
18142;SDS011;9197;50.930;3.140;2023-04-09T07:08:50;26.05;;;23.45;;
18142;SDS011;9197;50.930;3.140;2023-04-09T07:11:17;23.77;;;21.60;;
18142;SDS011;9197;50.930;3.140;2023-04-09T07:13:46;25.38;;;23.10;;
18142;SDS011;9197;50.930;3.140;2023-04-09T07:16:14;27.83;;;25.35;;
18142;SDS011;9197;50.930;3.140;2023-04-09T07:18:41;28.77;;;25.98;;
18142;SDS011;9197;50.930;3.140;2023-04-09T07:21:08;27.73;;;25.33;;
18142;SDS011;9197;50.930;3.140;2023-04-09T07:23:35;29.77;;;26.95;;
18142;SDS011;9197;50.930;3.140;2023-04-09T07:26:02;30.40;;;27.48;;
18142;SDS011;9197;50.930;3.140;2023-04-09T07:28:30;30.40;;;27.73;;
18142;SDS011;9197;50.930;3.140;2023-04-09T07:30:59;31.15;;;28.05;;
18142;SDS011;9197;50.930;3.140;2023-04-09T07:33:27;29.33;;;26.67;;
18142;SDS011;9197;50.930;3.140;2023-04-09T07:35:55;32.08;;;28.95;;
18142;SDS011;9197;50.930;3.140;2023-04-09T07:38:22;32.30;;;29.30;;
18142;SDS011;9197;50.930;3.140;2023-04-09T07:40:49;32.10;;;29.00;;
18142;SDS011;9197;50.930;3.140;2023-04-09T07:43:16;33.05;;;29.80;;
18142;SDS011;9197;50.930;3.140;2023-04-09T07:45:43;34.65;;;31.23;;
18142;SDS011;9197;50.930;3.140;2023-04-09T07:48:12;35.90;;;32.45;;
18142;SDS011;9197;50.930;3.140;2023-04-09T07:50:39;35.33;;;31.73;;
18142;SDS011;9197;50.930;3.140;2023-04-09T07:53:07;35.65;;;32.20;;
18142;SDS011;9197;50.930;3.140;2023-04-09T07:55:34;37.72;;;34.17;;
18142;SDS011;9197;50.930;3.140;2023-04-09T07:58:01;38.58;;;34.83;;
18142;SDS011;9197;50.930;3.140;2023-04-09T08:00:30;37.88;;;34.15;;
18142;SDS011;9197;50.930;3.140;2023-04-09T08:02:57;38.22;;;34.33;;
18142;SDS011;9197;50.930;3.140;2023-04-09T08:05:25;38.38;;;34.65;;
18142;SDS011;9197;50.930;3.140;2023-04-09T08:07:53;37.42;;;33.88;;
18142;SDS011;9197;50.930;3.140;2023-04-09T08:10:20;39.55;;;35.65;;
18142;SDS011;9197;50.930;3.140;2023-04-09T08:12:48;39.78;;;36.05;;
18142;SDS011;9197;50.930;3.140;2023-04-09T08:15:15;39.40;;;35.47;;
18142;SDS011;9197;50.930;3.140;2023-04-09T08:17:43;37.75;;;34.05;;
18142;SDS011;9197;50.930;3.140;2023-04-09T08:20:10;38.75;;;34.78;;
18142;SDS011;9197;50.930;3.140;2023-04-09T08:22:39;39.33;;;35.47;;
18142;SDS011;9197;50.930;3.140;2023-04-09T08:25:07;37.95;;;34.63;;
18142;SDS011;9197;50.930;3.140;2023-04-09T08:27:34;39.33;;;35.83;;
18142;SDS011;9197;50.930;3.140;2023-04-09T08:30:01;38.30;;;34.80;;
18142;SDS011;9197;50.930;3.140;2023-04-09T08:32:28;37.28;;;33.78;;
18142;SDS011;9197;50.930;3.140;2023-04-09T08:34:56;37.10;;;33.50;;
18142;SDS011;9197;50.930;3.140;2023-04-09T08:37:23;37.78;;;34.50;;
18142;SDS011;9197;50.930;3.140;2023-04-09T08:39:52;38.78;;;35.15;;
18142;SDS011;9197;50.930;3.140;2023-04-09T08:42:19;37.13;;;33.72;;
18142;SDS011;9197;50.930;3.140;2023-04-09T08:44:48;37.45;;;33.95;;
18142;SDS011;9197;50.930;3.140;2023-04-09T08:47:16;36.85;;;33.55;;
18142;SDS011;9197;50.930;3.140;2023-04-09T08:49:44;37.90;;;34.20;;
18142;SDS011;9197;50.930;3.140;2023-04-09T08:52:12;37.10;;;33.88;;
18142;SDS011;9197;50.930;3.140;2023-04-09T08:54:41;38.50;;;35.10;;
18142;SDS011;9197;50.930;3.140;2023-04-09T08:57:10;36.10;;;32.72;;
18142;SDS011;9197;50.930;3.140;2023-04-09T08:59:37;36.05;;;32.75;;
18142;SDS011;9197;50.930;3.140;2023-04-09T09:02:07;38.13;;;34.92;;
18142;SDS011;9197;50.930;3.140;2023-04-09T09:04:44;38.40;;;34.72;;
18142;SDS011;9197;50.930;3.140;2023-04-09T09:07:12;36.65;;;33.47;;
18142;SDS011;9197;50.930;3.140;2023-04-09T09:09:52;35.15;;;32.13;;
18142;SDS011;9197;50.930;3.140;2023-04-09T09:12:34;32.83;;;29.92;;
18142;SDS011;9197;50.930;3.140;2023-04-09T09:15:02;33.67;;;30.67;;
18142;SDS011;9197;50.930;3.140;2023-04-09T09:17:29;32.60;;;29.70;;
18142;SDS011;9197;50.930;3.140;2023-04-09T09:19:56;34.83;;;31.75;;
18142;SDS011;9197;50.930;3.140;2023-04-09T09:22:24;36.17;;;33.08;;
18142;SDS011;9197;50.930;3.140;2023-04-09T09:24:51;36.42;;;33.03;;
18142;SDS011;9197;50.930;3.140;2023-04-09T09:27:31;35.33;;;32.08;;
18142;SDS011;9197;50.930;3.140;2023-04-09T09:30:01;35.17;;;32.10;;
18142;SDS011;9197;50.930;3.140;2023-04-09T09:32:29;39.75;;;36.15;;
18142;SDS011;9197;50.930;3.140;2023-04-09T09:34:57;41.33;;;37.72;;
18142;SDS011;9197;50.930;3.140;2023-04-09T09:37:25;38.40;;;35.00;;
18142;SDS011;9197;50.930;3.140;2023-04-09T09:39:52;34.83;;;31.58;;
18142;SDS011;9197;50.930;3.140;2023-04-09T09:42:20;32.83;;;29.90;;
18142;SDS011;9197;50.930;3.140;2023-04-09T09:44:47;32.67;;;29.70;;
18142;SDS011;9197;50.930;3.140;2023-04-09T09:47:17;31.45;;;28.45;;
18142;SDS011;9197;50.930;3.140;2023-04-09T09:49:46;32.28;;;29.52;;
18142;SDS011;9197;50.930;3.140;2023-04-09T09:52:13;32.53;;;29.55;;
18142;SDS011;9197;50.930;3.140;2023-04-09T09:54:42;30.15;;;27.55;;
18142;SDS011;9197;50.930;3.140;2023-04-09T09:57:13;31.17;;;28.25;;
18142;SDS011;9197;50.930;3.140;2023-04-09T09:59:43;33.08;;;30.08;;
18142;SDS011;9197;50.930;3.140;2023-04-09T10:02:14;31.65;;;28.77;;
18142;SDS011;9197;50.930;3.140;2023-04-09T10:04:45;33.17;;;30.13;;
18142;SDS011;9197;50.930;3.140;2023-04-09T10:07:14;31.95;;;28.90;;
18142;SDS011;9197;50.930;3.140;2023-04-09T10:09:44;28.63;;;26.02;;
18142;SDS011;9197;50.930;3.140;2023-04-09T10:12:14;30.77;;;27.90;;
18142;SDS011;9197;50.930;3.140;2023-04-09T10:14:42;29.50;;;26.98;;
18142;SDS011;9197;50.930;3.140;2023-04-09T10:17:10;31.95;;;29.08;;
18142;SDS011;9197;50.930;3.140;2023-04-09T10:19:39;30.98;;;28.27;;
18142;SDS011;9197;50.930;3.140;2023-04-09T10:22:09;28.25;;;25.58;;
18142;SDS011;9197;50.930;3.140;2023-04-09T10:24:37;29.70;;;27.10;;
18142;SDS011;9197;50.930;3.140;2023-04-09T10:27:08;29.17;;;26.52;;
18142;SDS011;9197;50.930;3.140;2023-04-09T10:29:36;29.10;;;26.45;;
18142;SDS011;9197;50.930;3.140;2023-04-09T10:32:08;26.17;;;23.80;;
18142;SDS011;9197;50.930;3.140;2023-04-09T10:34:36;27.92;;;25.15;;
18142;SDS011;9197;50.930;3.140;2023-04-09T10:37:05;29.05;;;26.38;;
18142;SDS011;9197;50.930;3.140;2023-04-09T10:39:37;28.98;;;26.15;;
18142;SDS011;9197;50.930;3.140;2023-04-09T10:42:07;24.58;;;22.35;;
18142;SDS011;9197;50.930;3.140;2023-04-09T10:44:34;26.83;;;24.38;;
18142;SDS011;9197;50.930;3.140;2023-04-09T10:47:02;27.00;;;24.58;;
18142;SDS011;9197;50.930;3.140;2023-04-09T10:49:34;26.65;;;24.13;;
18142;SDS011;9197;50.930;3.140;2023-04-09T10:52:02;30.33;;;27.45;;
18142;SDS011;9197;50.930;3.140;2023-04-09T10:54:44;28.05;;;25.45;;
18142;SDS011;9197;50.930;3.140;2023-04-09T10:57:15;30.27;;;27.15;;
18142;SDS011;9197;50.930;3.140;2023-04-09T10:59:43;28.63;;;25.73;;
18142;SDS011;9197;50.930;3.140;2023-04-09T11:04:59;28.77;;;26.00;;
18142;SDS011;9197;50.930;3.140;2023-04-09T11:07:29;28.83;;;26.00;;
18142;SDS011;9197;50.930;3.140;2023-04-09T11:10:00;27.10;;;24.35;;
18142;SDS011;9197;50.930;3.140;2023-04-09T11:12:27;26.33;;;23.10;;
18142;SDS011;9197;50.930;3.140;2023-04-09T11:14:54;28.48;;;25.52;;
18142;SDS011;9197;50.930;3.140;2023-04-09T11:17:21;24.70;;;22.08;;
18142;SDS011;9197;50.930;3.140;2023-04-09T11:19:49;22.15;;;19.40;;
18142;SDS011;9197;50.930;3.140;2023-04-09T11:22:16;21.95;;;19.65;;
18142;SDS011;9197;50.930;3.140;2023-04-09T11:24:44;25.77;;;23.05;;
18142;SDS011;9197;50.930;3.140;2023-04-09T11:27:13;26.92;;;22.30;;
18142;SDS011;9197;50.930;3.140;2023-04-09T11:29:43;27.10;;;24.20;;
18142;SDS011;9197;50.930;3.140;2023-04-09T11:32:11;24.00;;;21.70;;
18142;SDS011;9197;50.930;3.140;2023-04-09T11:34:38;22.87;;;20.57;;
18142;SDS011;9197;50.930;3.140;2023-04-09T11:37:05;24.50;;;22.00;;
18142;SDS011;9197;50.930;3.140;2023-04-09T11:39:35;23.10;;;20.80;;
18142;SDS011;9197;50.930;3.140;2023-04-09T11:42:02;23.13;;;20.57;;
18142;SDS011;9197;50.930;3.140;2023-04-09T11:44:31;25.00;;;22.47;;
18142;SDS011;9197;50.930;3.140;2023-04-09T11:46:58;22.67;;;20.42;;
18142;SDS011;9197;50.930;3.140;2023-04-09T11:49:25;26.15;;;23.55;;
18142;SDS011;9197;50.930;3.140;2023-04-09T11:51:52;23.67;;;21.17;;
18142;SDS011;9197;50.930;3.140;2023-04-09T11:54:22;23.58;;;21.23;;
18142;SDS011;9197;50.930;3.140;2023-04-09T11:56:49;25.95;;;22.52;;
18142;SDS011;9197;50.930;3.140;2023-04-09T11:59:20;21.67;;;19.58;;
18142;SDS011;9197;50.930;3.140;2023-04-09T12:01:49;24.08;;;21.27;;
18142;SDS011;9197;50.930;3.140;2023-04-09T12:04:18;24.23;;;21.73;;
18142;SDS011;9197;50.930;3.140;2023-04-09T12:06:46;21.95;;;19.70;;
18142;SDS011;9197;50.930;3.140;2023-04-09T12:09:13;20.88;;;18.67;;
18142;SDS011;9197;50.930;3.140;2023-04-09T12:11:41;20.17;;;18.08;;
18142;SDS011;9197;50.930;3.140;2023-04-09T12:14:11;20.33;;;18.02;;
18142;SDS011;9197;50.930;3.140;2023-04-09T12:16:38;20.05;;;17.52;;
18142;SDS011;9197;50.930;3.140;2023-04-09T12:19:09;16.83;;;15.25;;
18142;SDS011;9197;50.930;3.140;2023-04-09T12:21:46;18.33;;;16.50;;
18142;SDS011;9197;50.930;3.140;2023-04-09T12:24:14;21.30;;;17.95;;
18142;SDS011;9197;50.930;3.140;2023-04-09T12:26:41;21.40;;;18.55;;
18142;SDS011;9197;50.930;3.140;2023-04-09T12:29:08;22.10;;;19.80;;
18142;SDS011;9197;50.930;3.140;2023-04-09T12:31:35;21.07;;;18.83;;
18142;SDS011;9197;50.930;3.140;2023-04-09T12:34:03;20.55;;;18.33;;
18142;SDS011;9197;50.930;3.140;2023-04-09T12:36:31;21.25;;;19.05;;
18142;SDS011;9197;50.930;3.140;2023-04-09T12:38:58;20.27;;;17.98;;
18142;SDS011;9197;50.930;3.140;2023-04-09T12:41:26;23.15;;;20.23;;
18142;SDS011;9197;50.930;3.140;2023-04-09T12:43:53;24.02;;;20.00;;
18142;SDS011;9197;50.930;3.140;2023-04-09T12:46:20;19.88;;;17.88;;
18142;SDS011;9197;50.930;3.140;2023-04-09T12:48:47;21.95;;;19.08;;
18142;SDS011;9197;50.930;3.140;2023-04-09T12:51:15;23.55;;;21.00;;
18142;SDS011;9197;50.930;3.140;2023-04-09T12:53:43;24.63;;;22.05;;
18142;SDS011;9197;50.930;3.140;2023-04-09T12:56:10;24.92;;;22.33;;
18142;SDS011;9197;50.930;3.140;2023-04-09T12:58:37;25.77;;;22.65;;
18142;SDS011;9197;50.930;3.140;2023-04-09T13:01:05;26.73;;;23.73;;
18142;SDS011;9197;50.930;3.140;2023-04-09T13:03:32;27.15;;;23.38;;
18142;SDS011;9197;50.930;3.140;2023-04-09T13:06:00;25.95;;;22.40;;
18142;SDS011;9197;50.930;3.140;2023-04-09T13:08:27;27.80;;;24.77;;
18142;SDS011;9197;50.930;3.140;2023-04-09T13:10:56;27.25;;;24.35;;
18142;SDS011;9197;50.930;3.140;2023-04-09T13:13:23;29.50;;;25.98;;
18142;SDS011;9197;50.930;3.140;2023-04-09T13:15:50;27.35;;;24.45;;
18142;SDS011;9197;50.930;3.140;2023-04-09T13:18:18;27.83;;;24.60;;
18142;SDS011;9197;50.930;3.140;2023-04-09T13:20:45;28.70;;;25.63;;
18142;SDS011;9197;50.930;3.140;2023-04-09T13:23:12;31.50;;;27.25;;
18142;SDS011;9197;50.930;3.140;2023-04-09T13:25:39;27.35;;;24.63;;
18142;SDS011;9197;50.930;3.140;2023-04-09T13:28:08;30.90;;;25.83;;
18142;SDS011;9197;50.930;3.140;2023-04-09T13:30:35;29.83;;;25.17;;
18142;SDS011;9197;50.930;3.140;2023-04-09T13:33:02;25.20;;;22.58;;
18142;SDS011;9197;50.930;3.140;2023-04-09T13:35:29;25.23;;;22.70;;
18142;SDS011;9197;50.930;3.140;2023-04-09T13:37:57;28.30;;;25.23;;
18142;SDS011;9197;50.930;3.140;2023-04-09T13:40:24;28.70;;;23.48;;
18142;SDS011;9197;50.930;3.140;2023-04-09T13:42:52;29.23;;;26.02;;
18142;SDS011;9197;50.930;3.140;2023-04-09T13:45:20;27.77;;;24.88;;
18142;SDS011;9197;50.930;3.140;2023-04-09T13:47:48;26.88;;;24.08;;
18142;SDS011;9197;50.930;3.140;2023-04-09T13:50:15;28.15;;;25.25;;
18142;SDS011;9197;50.930;3.140;2023-04-09T13:52:42;26.25;;;23.52;;
18142;SDS011;9197;50.930;3.140;2023-04-09T13:55:09;25.58;;;22.90;;
18142;SDS011;9197;50.930;3.140;2023-04-09T13:57:36;24.20;;;21.60;;
18142;SDS011;9197;50.930;3.140;2023-04-09T14:00:04;26.58;;;23.88;;
18142;SDS011;9197;50.930;3.140;2023-04-09T14:02:33;24.83;;;22.17;;
18142;SDS011;9197;50.930;3.140;2023-04-09T14:05:00;23.17;;;20.77;;
18142;SDS011;9197;50.930;3.140;2023-04-09T14:07:28;24.20;;;19.20;;
18142;SDS011;9197;50.930;3.140;2023-04-09T14:09:56;20.45;;;18.30;;
18142;SDS011;9197;50.930;3.140;2023-04-09T14:12:23;21.70;;;19.48;;
18142;SDS011;9197;50.930;3.140;2023-04-09T14:14:50;22.35;;;20.15;;
18142;SDS011;9197;50.930;3.140;2023-04-09T14:17:17;20.27;;;18.13;;
18142;SDS011;9197;50.930;3.140;2023-04-09T14:19:46;21.13;;;18.35;;
18142;SDS011;9197;50.930;3.140;2023-04-09T14:22:13;20.10;;;17.38;;
18142;SDS011;9197;50.930;3.140;2023-04-09T14:24:40;18.98;;;17.02;;
18142;SDS011;9197;50.930;3.140;2023-04-09T14:27:07;19.13;;;17.13;;
18142;SDS011;9197;50.930;3.140;2023-04-09T14:29:35;18.80;;;16.80;;
18142;SDS011;9197;50.930;3.140;2023-04-09T14:32:02;18.63;;;16.75;;
18142;SDS011;9197;50.930;3.140;2023-04-09T14:34:29;18.63;;;16.15;;
18142;SDS011;9197;50.930;3.140;2023-04-09T14:36:58;16.42;;;13.80;;
18142;SDS011;9197;50.930;3.140;2023-04-09T14:39:25;15.27;;;13.55;;
18142;SDS011;9197;50.930;3.140;2023-04-09T14:41:52;15.88;;;14.18;;